首页
METAR-TAF:

METAR-TAF

机场 :

山形機場

山形, 日本

纬度: 38-25N, 经度: 140-22E, 海拔: 105米

当前天气观测

该预报发布于40分钟前的01:00 UTC
风速1节,风向多变
温度 18°C
湿度 83%
气压 1016 hPa
能见度10公里或以上
少量云层高于1000英尺
散云层高于7000英尺
多云

METAR: RJSC 200100Z VRB01KT 9999 FEW010 SCT070 BKN/// 18/15 Q1016

时间: 10:40 (01:40 UTC)


TAF: 丢失

超过4000个机场的气象观测和天气预报(METAR&TAF报告)。

可查询的气象台以黄色和红色小点在地图上表示。

将鼠标移到小点上方,可查看气象台名称。

然后点击查看天气观测和预报。

如需切换地图:点击带黑十字的绿色按钮放大地图;点击带横线的绿色按钮缩小地图;或者点击绿色箭头查看邻近地区的地图。


METAR-TAF: